Time;durP1;ratioP1;P1;durP2;ratioP2;P2;SDS_P1;SDS_P2;PMS_P1;PMS_P2;Temp;Humidity;BMP_temperature;BMP_pressure;BME280_temperature;BME280_humidity;BME280_pressure;Samples;Min_cycle;Max_cycle;Signal;HPM_P1;HPM_P2
2022/02/25 00:01:15;;;;;;;0.50;0.30;;;1.80;1.40;;;2.54;100.00;95494.92;643290;217;31644;-72
2022/02/25 00:03:57;;;;;;;0.40;0.30;;;1.90;1.40;;;2.50;100.00;95493.12;618518;226;32103;-72
2022/02/25 00:06:39;;;;;;;0.40;0.20;;;1.90;1.40;;;2.48;100.00;95485.67;647531;216;31528;-72
2022/02/25 00:09:20;;;;;;;0.60;0.40;;;1.90;1.40;;;2.44;100.00;95490.39;618309;226;31866;-73
2022/02/25 00:12:02;;;;;;;0.40;0.30;;;1.80;1.40;;;2.43;100.00;95504.98;619326;226;31912;-74
2022/02/25 00:14:44;;;;;;;0.40;0.30;;;1.90;1.40;;;2.46;100.00;95517.05;646431;216;31606;-73
2022/02/25 00:17:26;;;;;;;0.40;0.20;;;1.80;1.40;;;2.39;100.00;95518.72;646618;212;32039;-72
2022/02/25 00:20:10;;;;;;;1.90;0.40;;;1.80;1.40;;;2.43;100.00;95536.13;646527;216;31713;-72
2022/02/25 00:22:50;;;;;;;0.40;0.30;;;1.80;1.40;;;2.38;100.00;95539.63;646898;216;31556;-73
2022/02/25 00:25:32;;;;;;;0.40;0.30;;;1.70;1.40;;;2.27;100.00;95545.49;645893;216;31514;-73
2022/02/25 00:28:17;;;;;;;0.40;0.20;;;1.70;1.40;;;2.31;100.00;95545.59;647217;216;31610;-71
2022/02/25 00:30:58;;;;;;;0.40;0.30;;;1.60;1.40;;;2.32;100.00;95537.80;647759;216;31579;-72
2022/02/25 00:35:51;;;;;;;0.40;0.30;;;1.60;1.40;;;2.29;100.00;95518.02;646571;216;31698;-72
2022/02/25 00:38:32;;;;;;;0.40;0.20;;;1.50;1.40;;;2.16;100.00;95506.83;647092;216;32141;-72
2022/02/25 00:41:17;;;;;;;0.40;0.30;;;1.40;1.40;;;2.09;100.00;95526.44;617975;222;31939;-72
2022/02/25 00:43:59;;;;;;;0.40;0.30;;;1.40;1.40;;;2.17;100.00;95556.09;646633;216;31530;-72
2022/02/25 00:46:41;;;;;;;0.40;0.30;;;1.40;1.40;;;2.05;100.00;95566.27;619501;226;32006;-72
2022/02/25 00:49:22;;;;;;;0.40;0.30;;;1.30;1.40;;;2.02;100.00;95569.78;646310;216;31500;-72
2022/02/25 00:52:10;;;;;;;0.40;0.20;;;1.30;1.40;;;1.96;100.00;95585.00;619460;226;31826;-72
2022/02/25 00:54:52;;;;;;;0.40;0.20;;;1.30;1.40;;;2.00;100.00;95552.06;645350;212;31497;-72
2022/02/25 00:57:33;;;;;;;0.40;0.20;;;1.30;1.40;;;2.06;100.00;95547.08;645290;216;31518;-72
2022/02/25 01:00:15;;;;;;;0.40;0.20;;;1.30;1.40;;;1.98;100.00;95554.88;647556;216;31569;-72
2022/02/25 01:02:57;;;;;;;0.50;0.40;;;1.30;1.40;;;1.83;100.00;95560.09;646817;212;31465;-72
2022/02/25 01:05:39;;;;;;;0.40;0.30;;;1.20;1.40;;;1.71;100.00;95579.81;646689;212;31561;-72
2022/02/25 01:08:20;;;;;;;;;;;1.20;1.40;;;1.65;100.00;95585.32;643005;212;24986;-73
2022/02/25 01:11:01;;;;;;;;;;;1.10;1.40;;;1.64;100.00;95592.78;653585;216;25514;-71
2022/02/25 01:13:43;;;;;;;;;;;1.10;1.40;;;1.60;100.00;95610.77;654382;216;25199;-72
2022/02/25 01:16:24;;;;;;;;;;;1.10;1.40;;;1.57;100.00;95618.42;654362;216;24802;-71
2022/02/25 01:19:05;;;;;;;;;;;1.10;1.40;;;1.48;100.00;95614.36;653876;216;24872;-72
2022/02/25 01:21:47;;;;;;;;;;;1.10;1.40;;;1.40;100.00;95614.83;626818;225;25210;-72
2022/02/25 01:24:31;;;;;;;;;;;1.10;1.40;;;1.41;100.00;95632.94;652526;212;24904;-71
2022/02/25 01:27:12;;;;;;;;;;;1.10;1.40;;;1.33;100.00;95631.47;653382;216;24855;-72
2022/02/25 01:29:57;;;;;;;;;;;1.00;1.40;;;1.28;100.00;95646.53;654285;216;24825;-71
2022/02/25 01:32:39;;;;;;;;;;;0.90;1.40;;;1.25;100.00;95652.36;653550;216;24728;-71
2022/02/25 01:35:54;;;;;;;0.40;0.20;;;0.90;1.40;;;1.11;100.00;95653.91;645837;216;31544;-71
2022/02/25 01:38:35;;;;;;;;;;;0.90;1.40;;;1.08;100.00;95672.42;653423;216;24828;-71
2022/02/25 01:41:17;;;;;;;;;;;0.80;1.40;;;1.05;100.00;95652.72;653319;216;24866;-71
2022/02/25 01:44:10;;;;;;;;;;;0.80;1.40;;;1.05;100.00;95645.25;652088;216;25215;-71
2022/02/25 01:46:55;;;;;;;;;;;0.80;1.40;;;1.09;100.00;95649.91;653686;216;24724;-74
2022/02/25 01:49:36;;;;;;;;;;;0.80;1.40;;;1.08;100.00;95662.92;654046;212;24825;-73
2022/02/25 01:52:17;;;;;;;;;;;0.80;1.40;;;1.08;100.00;95673.44;648584;215;24819;-71
2022/02/25 01:54:59;;;;;;;;;;;0.80;1.40;;;1.09;100.00;95666.41;648078;215;24837;-72
2022/02/25 01:57:40;;;;;;;;;;;0.90;1.40;;;1.11;100.00;95665.59;654101;216;25054;-71
2022/02/25 02:00:24;;;;;;;;;;;0.90;1.40;;;1.11;100.00;95652.89;653658;216;24807;-72
2022/02/25 02:03:05;;;;;;;;;;;0.80;1.40;;;1.20;100.00;95648.64;654213;216;24846;-71
2022/02/25 02:05:47;;;;;;;;;;;0.80;1.40;;;1.19;100.00;95650.17;652443;212;24822;-72
2022/02/25 02:08:29;;;;;;;;;;;0.90;1.40;;;1.13;100.00;95648.46;641251;216;24843;-72
2022/02/25 02:11:11;;;;;;;;;;;0.90;1.40;;;1.13;100.00;95662.03;648457;215;24849;-72
2022/02/25 02:13:52;;;;;;;;;;;0.80;1.40;;;1.16;100.00;95660.74;652612;216;25785;-71
2022/02/25 02:16:33;;;;;;;;;;;0.90;1.40;;;1.15;100.00;95691.22;653119;216;25686;-72
2022/02/25 02:19:14;;;;;;;;;;;0.90;1.40;;;1.15;100.00;95688.02;653377;216;24816;-71
2022/02/25 02:21:55;;;;;;;;;;;0.80;1.40;;;1.10;100.00;95691.14;652824;216;24743;-71
2022/02/25 02:24:37;;;;;;;;;;;0.90;1.40;;;1.14;100.00;95695.04;653096;216;24731;-71
2022/02/25 02:27:18;;;;;;;;;;;0.90;1.40;;;1.10;100.00;95696.16;653045;212;24847;-74
2022/02/25 02:29:59;;;;;;;;;;;0.80;1.40;;;1.08;100.00;95714.22;653552;212;24842;-72
2022/02/25 02:32:41;;;;;;;;;;;0.80;1.40;;;1.11;100.00;95714.23;653269;216;24895;-71
2022/02/25 02:35:51;;;;;;;0.40;0.37;;;0.90;1.40;;;1.15;100.00;95709.79;646178;216;31513;-71
2022/02/25 02:38:33;;;;;;;0.40;0.22;;;0.90;1.40;;;1.16;100.00;95706.03;647128;216;31490;-71
2022/02/25 02:41:18;;;;;;;0.40;0.20;;;0.80;1.40;;;1.13;100.00;95728.70;646471;212;31957;-72
2022/02/25 02:43:59;;;;;;;0.40;0.40;;;0.90;1.40;;;1.14;100.00;95734.18;645529;216;31637;-71
2022/02/25 02:46:44;;;;;;;;;;;0.90;1.40;;;1.14;100.00;95731.94;654126;216;25445;-72
2022/02/25 02:49:25;;;;;;;;;;;0.90;1.40;;;1.19;100.00;95738.66;649266;214;24826;-73
2022/02/25 02:52:07;;;;;;;;;;;1.00;1.40;;;1.20;100.00;95738.02;649206;216;24728;-72
2022/02/25 02:54:51;;;;;;;;;;;1.00;1.40;;;1.20;100.00;95723.29;652176;216;24890;-75
2022/02/25 02:57:35;;;;;;;;;;;1.00;1.40;;;1.20;100.00;95739.84;649864;217;24955;-79
2022/02/25 03:00:22;;;;;;;;;;;1.00;1.40;;;1.17;100.00;95729.75;652994;216;26697;-72
2022/02/25 03:03:03;;;;;;;;;;;1.00;1.40;;;1.25;100.00;95730.22;654847;216;24860;-73
2022/02/25 03:05:45;;;;;;;;;;;1.10;1.40;;;1.27;100.00;95728.55;654140;216;24834;-73
2022/02/25 03:08:29;;;;;;;;;;;1.10;1.40;;;1.28;100.00;95741.01;642018;216;25397;-75
2022/02/25 03:11:10;;;;;;;;;;;1.10;1.40;;;1.28;100.00;95751.09;652340;216;24811;-72
2022/02/25 03:13:51;;;;;;;;;;;1.10;1.40;;;1.31;100.00;95755.35;653496;216;24825;-72
2022/02/25 03:16:33;;;;;;;;;;;1.10;1.40;;;1.31;100.00;95752.52;653203;212;24815;-72
2022/02/25 03:19:14;;;;;;;;;;;1.10;1.40;;;1.34;100.00;95756.47;649833;216;25080;-73
2022/02/25 03:21:55;;;;;;;;;;;1.10;1.40;;;1.35;100.00;95765.95;649368;217;25227;-73
2022/02/25 03:24:37;;;;;;;;;;;1.20;1.40;;;1.30;100.00;95764.95;653318;216;24826;-72
2022/02/25 03:27:21;;;;;;;;;;;1.10;1.40;;;1.32;100.00;95762.91;652914;212;24830;-72
2022/02/25 03:30:02;;;;;;;;;;;1.20;1.40;;;1.30;100.00;95764.79;648589;218;25700;-72
2022/02/25 03:32:44;;;;;;;;;;;1.10;1.40;;;1.33;100.00;95769.70;649434;217;24822;-72
2022/02/25 03:35:50;;;;;;;;;;;1.10;1.40;;;1.30;100.00;95776.17;654308;212;25354;-72
2022/02/25 03:38:34;;;;;;;;;;;1.10;1.40;;;1.29;100.00;95785.46;653148;212;26000;-72
2022/02/25 03:41:18;;;;;;;;;;;1.10;1.40;;;1.34;100.00;95789.17;652641;214;24832;-71
2022/02/25 03:43:59;;;;;;;;;;;1.10;1.40;;;1.34;100.00;95787.39;653173;212;24901;-72
2022/02/25 03:46:40;;;;;;;;;;;1.10;1.40;;;1.35;100.00;95777.66;652478;216;24916;-72
2022/02/25 03:49:22;;;;;;;;;;;1.10;1.40;;;1.40;100.00;95782.33;653662;216;24817;-74
2022/02/25 03:52:04;;;;;;;;;;;1.20;1.40;;;1.39;100.00;95796.25;654848;212;24807;-73
2022/02/25 03:54:45;;;;;;;;;;;1.10;1.40;;;1.42;100.00;95797.11;649582;216;24800;-72
2022/02/25 03:57:26;;;;;;;;;;;1.20;1.40;;;1.47;100.00;95808.95;652680;212;25270;-72
2022/02/25 04:00:08;;;;;;;;;;;1.20;1.40;;;1.45;100.00;95814.00;653837;216;24730;-73
2022/02/25 04:02:53;;;;;;;;;;;1.10;1.40;;;1.48;100.00;95808.55;623307;226;24913;-72
2022/02/25 04:05:34;;;;;;;;;;;1.20;1.40;;;1.42;100.00;95813.62;652649;216;24834;-72
2022/02/25 04:08:18;;;;;;;;;;;1.10;1.40;;;1.45;100.00;95815.54;653107;216;24873;-73
2022/02/25 04:11:00;;;;;;;;;;;1.10;1.40;;;1.44;100.00;95812.80;653529;216;24830;-72
2022/02/25 04:13:43;;;;;;;;;;;1.10;1.40;;;1.46;100.00;95818.84;637758;220;24866;-72
2022/02/25 04:16:24;;;;;;;;;;;1.20;1.40;;;1.48;100.00;95820.14;648544;216;24826;-72
2022/02/25 04:19:05;;;;;;;;;;;1.10;1.40;;;1.45;100.00;95824.53;653745;216;24898;-72
2022/02/25 04:21:46;;;;;;;;;;;1.10;1.40;;;1.49;100.00;95823.36;654140;216;25127;-73
2022/02/25 04:24:28;;;;;;;;;;;1.10;1.40;;;1.52;100.00;95825.70;654467;216;24828;-73
2022/02/25 04:27:10;;;;;;;;;;;1.10;1.40;;;1.49;100.00;95830.19;652876;216;24840;-72
2022/02/25 04:29:51;;;;;;;;;;;1.10;1.40;;;1.48;100.00;95830.46;653047;216;24866;-72
2022/02/25 04:32:32;;;;;;;;;;;1.10;1.40;;;1.48;100.00;95825.11;652033;212;25631;-73
2022/02/25 04:35:51;;;;;;;0.40;0.30;;;1.10;1.40;;;1.52;100.00;95832.75;645688;216;31683;-72
2022/02/25 04:38:33;;;;;;;0.40;0.30;;;1.10;1.40;;;1.50;100.00;95834.53;619061;226;31905;-72
2022/02/25 04:41:15;;;;;;;0.40;0.30;;;1.10;1.40;;;1.47;100.00;95834.50;646409;216;31502;-72
2022/02/25 04:43:56;;;;;;;0.40;0.40;;;1.10;1.40;;;1.46;100.00;95833.42;646409;212;32061;-74
2022/02/25 04:46:38;;;;;;;0.50;0.50;;;1.10;1.40;;;1.42;100.00;95844.06;618499;225;31863;-72
2022/02/25 04:49:19;;;;;;;0.40;0.30;;;1.00;1.40;;;1.38;100.00;95844.58;646922;212;31732;-72
2022/02/25 04:52:01;;;;;;;0.40;0.23;;;1.00;1.40;;;1.43;100.00;95842.32;646990;216;31678;-73
2022/02/25 04:54:46;;;;;;;0.60;0.40;;;1.00;1.40;;;1.41;100.00;95845.08;646590;216;31694;-75
2022/02/25 04:57:27;;;;;;;0.40;0.30;;;1.00;1.40;;;1.39;100.00;95842.73;645764;216;31513;-73
2022/02/25 05:00:10;;;;;;;0.40;0.20;;;1.00;1.40;;;1.38;100.00;95851.78;645838;216;42117;-72
2022/02/25 05:02:54;;;;;;;0.70;0.30;;;0.90;1.40;;;1.33;100.00;95856.98;646429;213;42276;-72
2022/02/25 05:05:36;;;;;;;0.57;0.52;;;0.90;1.40;;;1.35;100.00;95866.42;618571;222;43016;-72
2022/02/25 05:08:18;;;;;;;0.40;0.30;;;0.90;1.40;;;1.29;100.00;95862.59;646481;216;31461;-72
2022/02/25 05:11:00;;;;;;;0.40;0.30;;;0.90;1.40;;;1.39;100.00;95867.98;620225;226;43254;-71
2022/02/25 05:13:42;;;;;;;0.40;0.30;;;0.90;1.40;;;1.32;100.00;95873.84;646756;212;31760;-74
2022/02/25 05:21:57;;;;;;;1.00;0.30;;;0.80;1.40;;;1.15;100.00;95888.08;647072;216;31523;-73
2022/02/25 05:24:40;;;;;;;0.40;0.30;;;0.80;1.40;;;1.16;100.00;95890.39;647090;216;42113;-73
2022/02/25 05:27:21;;;;;;;0.50;0.50;;;0.70;1.40;;;1.16;100.00;95894.72;645524;216;31526;-73
2022/02/25 05:30:02;;;;;;;0.40;0.30;;;0.80;1.40;;;1.16;100.00;95895.58;630688;222;31590;-72
2022/02/25 05:32:44;;;;;;;0.50;0.50;;;0.70;1.40;;;1.13;100.00;95905.70;647429;216;31494;-75
2022/02/25 05:35:51;;;;;;;1.95;0.62;;;0.70;1.40;;;1.17;100.00;95905.00;645274;216;31900;-73
2022/02/25 05:38:32;;;;;;;0.40;0.30;;;0.70;1.40;;;1.10;100.00;95907.86;646998;212;33505;-75
2022/02/25 05:41:14;;;;;;;0.40;0.30;;;0.70;1.40;;;1.13;100.00;95917.20;647296;212;42111;-72
2022/02/25 05:43:56;;;;;;;0.80;0.40;;;0.70;1.40;;;1.14;100.00;95919.58;645846;212;31536;-72
2022/02/25 05:46:40;;;;;;;0.50;0.30;;;0.70;1.40;;;1.09;100.00;95926.52;630172;221;31649;-72
2022/02/25 05:49:24;;;;;;;0.40;0.20;;;0.70;1.40;;;1.06;100.00;95931.91;645324;212;31496;-74
2022/02/25 05:52:07;;;;;;;0.40;0.30;;;0.70;1.40;;;1.02;100.00;95928.09;646475;216;31487;-72
2022/02/25 05:54:49;;;;;;;0.60;0.40;;;0.70;1.40;;;1.08;100.00;95926.45;646613;212;42313;-73
2022/02/25 05:57:31;;;;;;;0.73;0.52;;;0.70;1.40;;;1.08;100.00;95931.05;647116;216;31521;-72
2022/02/25 06:00:13;;;;;;;0.40;0.20;;;0.70;1.40;;;1.04;100.00;95941.75;647321;212;31593;-73
2022/02/25 06:03:01;;;;;;;0.40;0.30;;;0.60;1.40;;;1.03;100.00;95939.31;647635;212;42113;-78
2022/02/25 06:05:42;;;;;;;0.40;0.22;;;0.60;1.40;;;1.05;100.00;95949.02;618950;222;31974;-78
2022/02/25 06:08:26;;;;;;;0.40;0.30;;;0.60;1.40;;;1.07;100.00;95951.85;634698;216;42804;-74
2022/02/25 06:11:08;;;;;;;0.50;0.40;;;0.60;1.40;;;0.95;100.00;95959.09;617542;222;31898;-74
2022/02/25 06:13:49;;;;;;;0.40;0.30;;;0.50;1.40;;;0.90;100.00;95963.81;647100;212;31525;-72
2022/02/25 06:16:31;;;;;;;0.40;0.30;;;0.50;1.40;;;0.91;100.00;95967.31;646147;216;42183;-72
2022/02/25 06:19:13;;;;;;;0.40;0.30;;;0.50;1.40;;;0.97;100.00;95970.34;648393;216;42154;-72
2022/02/25 06:21:57;;;;;;;0.40;0.30;;;0.50;1.40;;;0.90;100.00;95976.09;645536;212;32113;-73
2022/02/25 06:24:39;;;;;;;0.50;0.40;;;0.40;1.40;;;0.89;100.00;95977.56;647099;216;32142;-75
2022/02/25 06:27:21;;;;;;;2.40;0.30;;;0.40;1.40;;;0.83;100.00;95985.64;644877;212;31465;-72
2022/02/25 06:30:06;;;;;;;0.80;0.80;;;0.40;1.40;;;0.84;100.00;95981.92;620543;226;42674;-77
2022/02/25 06:32:48;;;;;;;0.40;0.30;;;0.40;1.40;;;0.78;100.00;95990.22;647620;216;31498;-78
2022/02/25 06:35:51;;;;;;;0.40;0.30;;;0.40;1.40;;;0.67;100.00;95993.16;646848;212;31559;-72
2022/02/25 06:38:33;;;;;;;0.40;0.20;;;0.30;1.40;;;0.61;100.00;95994.55;645750;216;31493;-72
2022/02/25 06:41:14;;;;;;;0.43;0.32;;;0.20;1.40;;;0.56;100.00;95997.80;646624;216;31609;-72
2022/02/25 06:46:51;;;;;;;0.40;0.30;;;0.40;1.40;;;0.72;100.00;96013.31;646938;216;42790;-75
2022/02/25 06:49:33;;;;;;;0.40;0.30;;;0.40;1.40;;;0.81;100.00;96016.75;646278;216;42757;-75
2022/02/25 06:52:14;;;;;;;0.67;0.33;;;0.40;1.40;;;0.86;100.00;96026.27;645828;216;31464;-75
2022/02/25 06:54:59;;;;;;;0.40;0.20;;;0.40;1.40;;;0.84;100.00;96031.45;647052;212;37946;-76
2022/02/25 06:57:42;;;;;;;0.40;0.40;;;0.40;1.40;;;0.81;100.00;96039.13;619357;226;31952;-76
2022/02/25 07:00:24;;;;;;;0.40;0.30;;;0.40;1.40;;;0.87;100.00;96036.97;620337;222;31975;-75
2022/02/25 07:03:12;;;;;;;0.50;0.40;;;0.40;1.40;;;0.99;100.00;96036.18;646290;216;31559;-75
2022/02/25 07:05:57;;;;;;;3.08;0.40;;;0.50;1.40;;;1.01;100.00;96035.58;620141;226;43086;-74
2022/02/25 07:08:38;;;;;;;1.37;0.65;;;0.50;1.40;;;0.94;100.00;96037.17;609314;225;43216;-72
2022/02/25 07:11:26;;;;;;;0.40;0.23;;;0.50;1.40;;;1.12;100.00;96037.00;615989;226;32039;-76
2022/02/25 07:14:09;;;;;;;0.40;0.40;;;0.60;1.40;;;1.25;100.00;96039.65;647613;212;31527;-76
2022/02/25 07:16:55;;;;;;;0.40;0.30;;;0.60;1.40;;;1.42;100.00;96040.65;645944;212;42469;-72
2022/02/25 07:19:37;;;;;;;0.40;0.30;;;0.70;1.40;;;1.26;100.00;96048.32;632088;222;34812;-72
2022/02/25 07:22:19;;;;;;;0.40;0.30;;;0.70;1.40;;;1.21;100.00;96047.73;645666;212;32035;-75
2022/02/25 07:25:00;;;;;;;0.60;0.40;;;0.70;1.40;;;1.14;100.00;96052.58;645727;212;31548;-72
2022/02/25 07:27:48;;;;;;;0.40;0.30;;;0.60;1.40;;;1.09;100.00;96057.66;646212;212;31517;-76
2022/02/25 07:30:30;;;;;;;0.40;0.25;;;0.50;1.40;;;0.98;100.00;96058.63;620744;222;42640;-75
2022/02/25 07:35:52;;;;;;;0.50;0.50;;;0.40;1.40;;;0.90;100.00;96068.49;647800;216;31574;-76
2022/02/25 07:38:34;;;;;;;2.50;0.50;;;0.40;1.40;;;0.84;100.00;96069.72;646471;216;42129;-76
2022/02/25 07:41:19;;;;;;;0.40;0.30;;;0.40;1.40;;;0.92;100.00;96076.48;647259;216;31564;-76
2022/02/25 07:44:00;;;;;;;0.70;0.50;;;0.50;1.40;;;0.94;100.00;96084.77;647988;212;42398;-75
2022/02/25 07:46:45;;;;;;;0.40;0.20;;;0.50;1.40;;;1.14;100.00;96084.99;647071;212;32103;-76
2022/02/25 07:49:33;;;;;;;0.50;0.50;;;0.70;1.40;;;1.29;100.00;96084.70;619291;225;31813;-72
2022/02/25 07:52:23;;;;;;;0.40;0.40;;;0.90;1.40;;;1.54;100.00;96080.49;647082;216;31470;-76
2022/02/25 07:55:08;;;;;;;0.40;0.40;;;1.10;1.40;;;1.61;100.00;96081.78;646560;212;31679;-76
2022/02/25 07:57:49;;;;;;;0.40;0.40;;;1.30;1.40;;;1.78;100.00;96080.70;645770;212;42173;-76
2022/02/25 08:00:30;;;;;;;0.40;0.30;;;1.40;1.40;;;1.76;100.00;96076.85;620346;225;31807;-76
2022/02/25 08:03:14;;;;;;;0.40;0.30;;;1.50;1.40;;;1.95;100.00;96080.72;646771;216;31518;-73
2022/02/25 08:06:02;;;;;;;0.40;0.40;;;1.60;1.40;;;2.16;100.00;96085.20;645001;212;31982;-75
2022/02/25 08:08:49;;;;;;;2.83;0.83;;;1.70;1.40;;;2.23;100.00;96082.66;645109;212;31756;-75
2022/02/25 08:11:34;;;;;;;0.40;0.30;;;1.90;1.40;;;2.27;100.00;96094.83;645994;216;31554;-76
2022/02/25 08:14:19;;;;;;;1.10;0.88;;;1.90;1.40;;;2.35;100.00;96103.45;646661;212;32072;-75
2022/02/25 08:17:01;;;;;;;0.40;0.30;;;1.80;1.40;;;2.38;100.00;96092.09;620272;222;31899;-75
2022/02/25 08:19:48;;;;;;;0.50;0.50;;;1.90;1.40;;;2.51;100.00;96095.59;646262;216;31520;-73
2022/02/25 08:22:36;;;;;;;0.40;0.30;;;2.00;1.40;;;2.46;100.00;96102.02;647002;216;31522;-75
2022/02/25 08:25:18;;;;;;;0.40;0.30;;;2.10;1.40;;;2.55;100.00;96095.36;648859;216;31506;-75
2022/02/25 08:30:37;;;;;;;4.10;0.60;;;2.30;1.40;;;2.87;100.00;96106.46;646943;216;31499;-76
2022/02/25 08:35:51;;;;;;;1.30;0.70;;;2.30;1.40;;;2.70;100.00;96094.28;647786;212;31550;-75
2022/02/25 08:38:34;;;;;;;0.60;0.40;;;2.20;1.40;;;2.90;100.00;96094.19;645518;216;31497;-73
2022/02/25 08:41:22;;;;;;;2.80;0.50;;;2.40;1.40;;;2.87;100.00;96099.82;619089;226;31854;-76
2022/02/25 08:44:04;;;;;;;0.50;0.50;;;2.40;1.40;;;2.95;100.00;96110.45;619949;222;31844;-74
2022/02/25 08:46:49;;;;;;;0.50;0.30;;;2.50;1.40;;;3.11;100.00;96109.65;646686;216;31500;-75
2022/02/25 08:49:31;;;;;;;0.47;0.40;;;2.70;1.40;;;3.04;100.00;96107.07;618857;223;32012;-75
2022/02/25 08:52:12;;;;;;;0.50;0.40;;;2.70;1.40;;;3.24;100.00;96103.85;646966;212;31533;-75
2022/02/25 08:54:57;;;;;;;0.50;0.40;;;2.80;1.40;;;3.38;100.00;96108.07;646583;216;31550;-75
2022/02/25 08:57:45;;;;;;;0.70;0.50;;;2.90;1.40;;;3.20;100.00;96107.27;645807;216;32147;-73
2022/02/25 09:00:26;;;;;;;0.60;0.30;;;2.90;1.40;;;3.42;100.00;96111.30;646234;216;42663;-75
2022/02/25 09:03:14;;;;;;;0.60;0.40;;;3.10;1.40;;;3.42;100.00;96106.16;648322;212;31538;-76
2022/02/25 09:05:57;;;;;;;0.70;0.40;;;3.10;1.40;;;3.76;100.00;96101.49;645593;216;31661;-76
2022/02/25 09:08:38;;;;;;;0.50;0.30;;;3.40;1.40;;;3.86;100.00;96104.48;645302;216;31504;-75
2022/02/25 09:11:21;;;;;;;1.70;0.30;;;3.60;1.40;;;4.20;100.00;96092.30;646997;212;31504;-76
2022/02/25 09:14:02;;;;;;;0.40;0.30;;;4.80;1.40;;;5.62;93.08;96094.50;647871;216;31522;-76
2022/02/25 09:16:46;;;;;;;0.60;0.45;;;7.30;1.40;;;6.52;87.52;96093.48;647190;212;31525;-76
2022/02/25 09:19:28;;;;;;;2.80;0.50;;;8.00;1.40;;;7.38;81.25;96100.63;647518;214;31506;-76
2022/02/25 09:22:11;;;;;;;0.50;0.35;;;8.20;1.40;;;8.46;80.58;96086.50;647576;212;31641;-76
2022/02/25 09:24:53;;;;;;;0.50;0.40;;;9.90;1.40;;;9.27;73.41;96091.31;647306;216;31956;-75
2022/02/25 09:27:34;;;;;;;1.80;0.40;;;9.90;1.40;;;9.03;67.84;96091.58;619422;222;32109;-74
2022/02/25 09:30:16;;;;;;;0.80;0.60;;;9.80;1.40;;;9.10;68.59;96092.08;646222;216;31809;-76
2022/02/25 09:32:58;;;;;;;1.10;0.50;;;9.60;1.40;;;8.71;66.31;96088.81;646555;212;31490;-76
2022/02/25 09:35:51;;;;;;;1.92;0.50;;;9.20;1.40;;;9.47;67.53;96093.95;647291;212;31478;-75
2022/02/25 09:38:32;;;;;;;0.60;0.30;;;9.50;1.40;;;9.28;58.90;96092.27;618573;226;42478;-76
2022/02/25 09:41:16;;;;;;;0.93;0.43;;;8.90;1.40;;;9.75;61.50;96092.45;643377;214;31885;-75
2022/02/25 09:43:58;;;;;;;1.50;0.40;;;10.60;1.40;;;8.15;57.91;96113.45;647808;212;33161;-76
2022/02/25 09:46:40;;;;;;;1.60;0.50;;;8.10;1.40;;;9.17;57.02;96097.75;645843;212;31537;-76
2022/02/25 09:49:21;;;;;;;2.00;0.30;;;8.60;1.40;;;9.14;53.94;96096.91;619775;226;32076;-76
2022/02/25 09:52:06;;;;;;;1.30;0.70;;;8.40;1.40;;;9.15;49.70;96090.19;647816;212;33140;-75
2022/02/25 09:54:48;;;;;;;0.70;0.40;;;9.30;1.40;;;9.14;49.52;96089.22;645972;212;31546;-75
2022/02/25 10:00:08;;;;;;;0.60;0.30;;;10.50;1.40;;;10.00;46.80;96093.61;647502;212;31491;-75
2022/02/25 10:05:24;;;;;;;0.40;0.25;;;6.10;1.40;;;8.27;50.96;96101.52;647546;212;31475;-75
2022/02/25 10:08:20;;;;;;;0.70;0.40;;;8.20;1.40;;;8.47;49.85;96101.14;646845;212;32385;-76
2022/02/25 10:11:02;;;;;;;2.40;0.40;;;6.80;1.40;;;8.94;49.22;96108.28;619550;226;31845;-76
2022/02/25 10:13:46;;;;;;;1.80;0.35;;;8.00;1.40;;;8.32;52.62;96108.64;647204;212;31807;-77
2022/02/25 10:16:27;;;;;;;0.60;0.30;;;6.80;1.40;;;6.36;58.10;96110.83;648695;216;32016;-76
2022/02/25 10:19:15;;;;;;;0.40;0.30;;;5.10;1.40;;;5.50;63.93;96116.80;646743;216;31505;-74
2022/02/25 10:24:31;;;;;;;1.03;0.50;;;4.50;1.40;;;5.40;65.36;96126.02;646221;216;31948;-73
2022/02/25 10:27:22;;;;;;;1.10;0.50;;;5.10;1.40;;;5.10;60.88;96127.82;646999;216;32179;-77
2022/02/25 10:30:12;;;;;;;1.00;0.50;;;4.20;1.40;;;4.86;61.24;96106.36;646335;216;31528;-75
2022/02/25 10:32:55;;;;;;;1.42;0.88;;;4.20;1.40;;;5.02;64.47;96106.99;618944;226;31847;-74
2022/02/25 10:35:51;;;;;;;0.50;0.30;;;4.80;1.40;;;5.10;67.97;96117.70;647556;212;32058;-74
2022/02/25 10:38:40;;;;;;;0.68;0.50;;;4.20;1.40;;;4.52;65.98;96111.12;616000;227;31783;-76
2022/02/25 10:41:26;;;;;;;1.10;0.40;;;3.80;1.40;;;4.32;66.19;96116.91;648581;212;31500;-76
2022/02/25 10:44:09;;;;;;;2.40;0.35;;;4.40;1.40;;;5.01;62.80;96107.59;646655;216;31524;-77
2022/02/25 10:47:02;;;;;;;2.10;0.40;;;4.30;1.40;;;5.04;65.03;96096.16;644832;216;31505;-76
2022/02/25 10:49:48;;;;;;;1.17;0.88;;;6.30;1.40;;;7.58;57.02;96081.94;647460;216;31545;-77
2022/02/25 10:52:37;;;;;;;0.70;0.30;;;8.90;1.40;;;10.09;51.55;96078.77;647005;212;42738;-76
2022/02/25 10:55:22;;;;;;;0.70;0.40;;;10.50;1.40;;;9.00;49.40;96073.48;647785;216;31509;-77
2022/02/25 10:58:06;;;;;;;0.90;0.30;;;8.40;1.40;;;8.85;48.34;96080.78;647187;212;31488;-73
2022/02/25 11:00:48;;;;;;;0.50;0.50;;;8.30;1.40;;;9.52;47.52;96079.12;641636;217;31477;-76
2022/02/25 11:03:33;;;;;;;0.80;0.30;;;8.90;1.40;;;10.75;47.90;96066.66;646202;216;32001;-76
2022/02/25 11:06:17;;;;;;;2.50;1.00;;;10.20;1.40;;;10.80;46.22;96069.55;646041;216;31623;-75
2022/02/25 11:09:01;;;;;;;3.10;0.60;;;10.20;1.40;;;11.00;44.90;96082.94;646290;216;31539;-76
2022/02/25 11:11:43;;;;;;;0.98;0.40;;;10.90;1.40;;;10.68;45.16;96068.04;620198;223;33126;-76
2022/02/25 11:14:25;;;;;;;1.40;0.40;;;10.50;1.40;;;12.10;43.56;96062.53;618698;226;32357;-76
2022/02/25 11:17:08;;;;;;;0.88;0.32;;;11.60;1.40;;;12.54;42.34;96045.70;646287;216;31671;-74
2022/02/25 11:19:50;;;;;;;0.70;0.30;;;12.00;1.40;;;12.42;42.75;96060.98;646243;212;31476;-73
2022/02/25 11:22:35;;;;;;;0.70;0.40;;;11.40;1.40;;;12.15;43.53;96062.16;647410;212;31531;-76
2022/02/25 11:25:17;;;;;;;0.73;0.30;;;11.50;1.40;;;12.40;41.89;96055.53;646192;212;31556;-77
2022/02/25 11:28:04;;;;;;;1.37;0.30;;;10.90;1.40;;;10.53;44.41;96055.94;646690;212;31506;-74
2022/02/25 11:30:54;;;;;;;0.90;0.50;;;8.80;1.40;;;9.23;47.21;96055.56;645145;212;31557;-74
2022/02/25 11:36:02;;;;;;;0.90;0.50;;;10.00;1.40;;;8.67;47.75;96062.02;629780;221;31690;-73
2022/02/25 11:38:49;;;;;;;0.90;0.40;;;6.70;1.40;;;7.28;52.59;96074.72;645882;216;31549;-76
2022/02/25 11:41:32;;;;;;;0.40;0.30;;;5.60;1.40;;;6.62;57.75;96077.20;619430;222;31979;-77
2022/02/25 11:44:14;;;;;;;3.20;0.50;;;5.20;1.40;;;6.35;56.38;96068.28;647872;212;31496;-76
2022/02/25 11:47:02;;;;;;;1.07;0.43;;;5.90;1.40;;;6.38;57.99;96066.84;645900;216;32026;-75
2022/02/25 11:49:46;;;;;;;0.40;0.30;;;5.20;1.40;;;5.86;60.85;96070.91;645234;213;31515;-75
2022/02/25 11:52:29;;;;;;;0.60;0.50;;;4.90;1.40;;;5.40;61.07;96074.34;645795;216;31498;-75
2022/02/25 11:55:13;;;;;;;1.00;0.30;;;4.40;1.40;;;5.17;62.33;96070.00;647415;216;31478;-76
2022/02/25 11:57:56;;;;;;;0.40;0.20;;;4.40;1.40;;;5.34;63.07;96071.46;619232;226;42473;-76
2022/02/25 12:00:39;;;;;;;1.20;0.30;;;4.70;1.40;;;7.52;58.50;96059.66;647571;212;31521;-77
2022/02/25 12:03:26;;;;;;;1.10;0.40;;;8.00;1.40;;;7.50;51.34;96051.67;646204;216;42536;-74
2022/02/25 12:06:14;;;;;;;0.60;0.40;;;6.10;1.40;;;6.77;52.34;96042.89;644097;216;42257;-76
2022/02/25 12:08:58;;;;;;;1.70;0.50;;;5.20;1.40;;;6.39;56.16;96045.41;619767;226;31976;-76
2022/02/25 12:11:41;;;;;;;0.85;0.30;;;5.30;1.40;;;6.01;55.75;96040.06;646841;216;31491;-76
2022/02/25 12:14:24;;;;;;;0.73;0.50;;;5.10;1.40;;;5.64;57.49;96052.02;647579;216;31495;-76
2022/02/25 12:17:10;;;;;;;0.90;0.40;;;4.90;1.40;;;5.62;56.67;96052.27;647253;212;42089;-76
2022/02/25 12:20:26;;;;;;;0.40;0.30;;;4.80;1.40;;;5.46;57.51;96055.94;619847;222;31810;-77
2022/02/25 12:23:24;;;;;;;0.73;0.32;;;4.80;1.40;;;5.53;57.74;96054.33;619450;226;42461;-76
2022/02/25 12:26:08;;;;;;;0.40;0.30;;;4.90;1.40;;;6.38;54.38;96050.30;619473;226;31828;-76
2022/02/25 12:28:50;;;;;;;0.75;0.35;;;5.80;1.40;;;5.99;54.51;96052.96;620456;226;32182;-76
2022/02/25 12:31:43;;;;;;;0.50;0.40;;;5.40;1.40;;;5.62;54.30;96058.08;647319;212;31792;-75